Time;durP1;ratioP1;P1;durP2;ratioP2;P2;SDS_P1;SDS_P2;PMS_P1;PMS_P2;Temp;Humidity;BMP_temperature;BMP_pressure;BME280_temperature;BME280_humidity;BME280_pressure;Samples;Min_cycle;Max_cycle;Signal;HPM_P1;HPM_P2
2023/08/07 00:00:23;;;;;;;0.80;0.80;;;14.10;99.90;;;;;;5052063;28;20632;-58
2023/08/07 00:02:50;;;;;;;4.23;1.57;;;14.10;99.90;;;;;;5052422;28;20240;-57
2023/08/07 00:05:17;;;;;;;3.37;1.13;;;14.10;99.90;;;;;;5051790;28;20689;-60
2023/08/07 00:07:43;;;;;;;1.50;0.93;;;14.10;99.90;;;;;;5051668;28;20251;-59
2023/08/07 00:10:13;;;;;;;2.00;1.07;;;14.10;99.90;;;;;;5052006;28;20241;-58
2023/08/07 00:12:39;;;;;;;3.70;1.10;;;14.10;99.90;;;;;;5052288;28;20217;-59
2023/08/07 00:15:07;;;;;;;2.50;1.27;;;14.10;99.90;;;;;;5052106;28;20205;-58
2023/08/07 00:17:34;;;;;;;2.07;1.20;;;14.10;99.90;;;;;;5051365;28;20693;-57
2023/08/07 00:20:00;;;;;;;1.77;1.10;;;14.10;99.90;;;;;;5051701;28;20201;-58
2023/08/07 00:22:27;;;;;;;2.03;1.20;;;14.00;99.90;;;;;;5051956;28;20267;-58
2023/08/07 00:24:54;;;;;;;2.60;1.17;;;14.00;99.90;;;;;;5052011;28;20212;-59
2023/08/07 00:27:22;;;;;;;3.27;1.20;;;14.10;99.90;;;;;;5054696;28;20267;-57
2023/08/07 00:29:49;;;;;;;6.03;1.50;;;14.10;99.90;;;;;;5055818;28;20201;-57
2023/08/07 00:32:15;;;;;;;5.60;1.23;;;14.10;99.90;;;;;;5056187;28;20212;-58
2023/08/07 00:34:42;;;;;;;5.57;1.60;;;14.20;99.90;;;;;;5055837;28;20580;-56
2023/08/07 00:37:09;;;;;;;2.37;1.30;;;14.20;99.90;;;;;;5084353;22;20237;-59
2023/08/07 00:39:35;;;;;;;3.03;1.13;;;14.20;99.90;;;;;;5067380;28;20591;-59
2023/08/07 00:42:02;;;;;;;7.23;1.53;;;14.20;99.90;;;;;;5075573;28;20583;-60
2023/08/07 00:44:30;;;;;;;1.90;1.10;;;14.20;99.90;;;;;;5075530;28;20216;-59
2023/08/07 00:46:57;;;;;;;1.87;1.13;;;14.20;99.90;;;;;;5075130;28;20228;-59
2023/08/07 00:49:23;;;;;;;4.03;1.20;;;14.20;99.90;;;;;;5075718;28;20215;-60
2023/08/07 00:51:50;;;;;;;2.57;1.20;;;14.20;99.90;;;;;;5075628;28;20205;-59
2023/08/07 00:54:20;;;;;;;1.80;1.13;;;14.20;99.90;;;;;;5075594;28;20204;-59
2023/08/07 00:56:47;;;;;;;4.67;1.53;;;14.20;99.90;;;;;;5074984;28;20228;-59
2023/08/07 00:59:14;;;;;;;3.13;1.27;;;14.10;99.90;;;;;;5075197;28;20201;-60
2023/08/07 01:01:42;;;;;;;2.37;1.20;;;14.10;99.90;;;;;;5075068;28;20215;-59
2023/08/07 01:04:09;;;;;;;2.60;1.60;;;14.10;99.90;;;;;;5075421;28;20205;-59
2023/08/07 01:06:35;;;;;;;3.53;1.40;;;14.20;99.90;;;;;;5075047;28;20227;-59
2023/08/07 01:09:02;;;;;;;2.83;1.30;;;14.30;99.90;;;;;;5075249;28;20676;-59
2023/08/07 01:11:37;;;;;;;2.23;1.30;;;14.20;99.90;;;;;;5075262;28;20205;-59
2023/08/07 01:14:10;;;;;;;3.20;1.37;;;14.20;99.90;;;;;;5074848;28;20583;-58
2023/08/07 01:16:42;;;;;;;3.53;1.37;;;14.20;99.90;;;;;;5074758;28;20233;-59
2023/08/07 01:19:20;;;;;;;3.03;1.30;;;14.20;99.90;;;;;;5074968;28;20212;-59
2023/08/07 01:21:49;;;;;;;2.27;1.10;;;14.20;99.90;;;;;;5074914;28;20208;-59
2023/08/07 01:24:16;;;;;;;2.90;1.30;;;14.20;99.90;;;;;;5074823;28;20208;-59
2023/08/07 01:26:45;;;;;;;2.43;1.20;;;14.30;99.90;;;;;;5074607;28;20235;-60
2023/08/07 01:29:18;;;;;;;2.73;1.13;;;14.20;99.90;;;;;;5075053;28;20699;-60
2023/08/07 01:31:47;;;;;;;3.00;1.30;;;14.20;99.90;;;;;;5074914;28;20292;-60
2023/08/07 01:34:17;;;;;;;5.67;1.60;;;14.20;99.90;;;;;;5074629;28;20208;-61
2023/08/07 01:36:46;;;;;;;3.93;1.20;;;14.20;99.90;;;;;;5074117;28;20654;-60
2023/08/07 01:39:14;;;;;;;2.90;1.20;;;14.20;99.90;;;;;;5073407;28;20216;-60
2023/08/07 01:41:42;;;;;;;4.63;1.47;;;14.30;99.90;;;;;;5074639;28;20209;-60
2023/08/07 01:44:09;;;;;;;3.00;1.17;;;14.30;99.90;;;;;;5074525;28;20205;-60
2023/08/07 01:46:35;;;;;;;1.90;1.27;;;14.20;99.90;;;;;;5074118;28;20225;-60
2023/08/07 01:49:02;;;;;;;3.33;1.20;;;14.10;99.90;;;;;;5074319;28;20270;-60
2023/08/07 01:51:28;;;;;;;2.50;1.10;;;14.20;99.90;;;;;;5074275;28;20212;-61
2023/08/07 01:53:55;;;;;;;2.23;1.43;;;14.20;99.90;;;;;;5074285;28;20226;-61
2023/08/07 01:56:23;;;;;;;2.00;1.08;;;14.30;99.90;;;;;;5073917;28;20229;-60
2023/08/07 01:58:50;;;;;;;2.43;1.23;;;14.30;99.90;;;;;;5074326;28;20205;-60
2023/08/07 02:01:16;;;;;;;3.53;1.40;;;14.30;99.90;;;;;;5074112;28;20641;-60
2023/08/07 02:03:43;;;;;;;3.50;1.33;;;14.30;99.90;;;;;;5074128;28;20205;-60
2023/08/07 02:06:10;;;;;;;2.57;1.37;;;14.20;99.90;;;;;;5073800;28;20598;-61
2023/08/07 02:08:36;;;;;;;1.70;1.17;;;14.20;99.90;;;;;;5074171;28;20581;-60
2023/08/07 02:11:03;;;;;;;3.67;1.20;;;14.10;99.90;;;;;;5074027;28;20664;-60
2023/08/07 02:13:31;;;;;;;3.53;1.30;;;14.10;99.90;;;;;;5073934;28;20665;-60
2023/08/07 02:15:58;;;;;;;3.33;1.30;;;14.20;99.90;;;;;;5073970;28;20232;-60
2023/08/07 02:18:24;;;;;;;3.60;1.40;;;14.10;99.90;;;;;;5073770;28;20247;-60
2023/08/07 02:20:51;;;;;;;6.80;1.37;;;14.10;99.90;;;;;;5073714;28;20205;-60
2023/08/07 02:23:18;;;;;;;2.93;1.77;;;14.10;99.90;;;;;;5073916;28;20205;-60
2023/08/07 02:25:45;;;;;;;2.38;1.02;;;14.10;99.90;;;;;;5073657;28;20215;-60
2023/08/07 02:28:12;;;;;;;3.40;1.50;;;14.10;99.90;;;;;;5073689;28;20298;-60
2023/08/07 02:30:40;;;;;;;3.00;1.37;;;14.10;99.90;;;;;;5073541;28;20212;-60
2023/08/07 02:33:06;;;;;;;4.07;1.80;;;14.10;99.90;;;;;;5073758;28;20208;-60
2023/08/07 02:35:33;;;;;;;2.83;1.53;;;14.00;99.90;;;;;;5073350;28;20204;-60
2023/08/07 02:38:00;;;;;;;3.13;1.63;;;14.10;99.90;;;;;;5073329;28;20239;-60
2023/08/07 02:40:26;;;;;;;3.17;1.30;;;14.10;99.90;;;;;;5073698;28;20216;-60
2023/08/07 02:42:53;;;;;;;4.40;1.27;;;14.10;99.90;;;;;;5073665;28;20234;-60
2023/08/07 02:45:20;;;;;;;1.97;1.27;;;14.10;99.90;;;;;;5073134;28;20580;-60
2023/08/07 02:47:48;;;;;;;3.23;1.50;;;14.10;99.90;;;;;;5072846;28;20225;-60
2023/08/07 02:50:15;;;;;;;3.93;1.30;;;14.10;99.90;;;;;;5073124;28;20204;-60
2023/08/07 02:52:41;;;;;;;2.37;1.40;;;14.10;99.90;;;;;;5073803;28;20213;-60
2023/08/07 02:55:09;;;;;;;4.30;1.67;;;14.10;99.90;;;;;;5073187;28;20205;-60
2023/08/07 02:57:35;;;;;;;6.00;1.47;;;14.10;99.90;;;;;;5072600;28;20731;-59
2023/08/07 03:00:02;;;;;;;12.03;1.93;;;14.00;99.90;;;;;;5072976;28;20623;-60
2023/08/07 03:02:29;;;;;;;5.23;1.53;;;14.00;99.90;;;;;;5073393;28;20299;-60
2023/08/07 03:04:57;;;;;;;2.70;1.50;;;14.00;99.90;;;;;;5073224;28;20200;-60
2023/08/07 03:07:24;;;;;;;3.57;1.60;;;14.00;99.90;;;;;;5072618;28;20727;-59
2023/08/07 03:09:50;;;;;;;9.10;1.60;;;14.00;99.90;;;;;;5072900;28;20212;-60
2023/08/07 03:12:17;;;;;;;2.83;1.50;;;14.00;99.90;;;;;;5072750;28;20460;-60
2023/08/07 03:14:44;;;;;;;4.77;1.80;;;13.90;99.90;;;;;;5072779;28;20200;-60
2023/08/07 03:17:10;;;;;;;3.63;1.50;;;14.00;99.90;;;;;;5072307;28;20240;-60
2023/08/07 03:19:37;;;;;;;3.57;1.57;;;14.00;99.90;;;;;;5072542;28;20532;-60
2023/08/07 03:22:05;;;;;;;4.33;1.77;;;14.00;99.90;;;;;;5072724;28;20201;-60
2023/08/07 03:24:32;;;;;;;3.83;1.57;;;14.00;99.90;;;;;;5072571;28;20205;-60
2023/08/07 03:26:59;;;;;;;5.50;1.57;;;14.00;99.90;;;;;;5072383;28;20228;-59
2023/08/07 03:29:25;;;;;;;5.60;2.00;;;14.00;99.90;;;;;;5072571;28;20208;-60
2023/08/07 03:31:52;;;;;;;4.30;1.73;;;14.00;99.90;;;;;;5072658;28;20231;-60
2023/08/07 03:34:19;;;;;;;3.57;1.90;;;14.00;99.90;;;;;;5072569;28;20213;-60
2023/08/07 03:36:46;;;;;;;2.97;1.23;;;14.00;99.90;;;;;;5072089;28;20236;-60
2023/08/07 03:39:13;;;;;;;3.63;1.30;;;14.00;99.90;;;;;;5072279;28;20358;-60
2023/08/07 03:41:40;;;;;;;4.77;1.57;;;14.00;99.90;;;;;;5072413;28;20208;-60
2023/08/07 03:44:07;;;;;;;5.17;1.80;;;13.90;99.90;;;;;;5072103;28;20271;-60
2023/08/07 03:46:34;;;;;;;3.37;1.70;;;13.90;99.90;;;;;;5072072;28;20302;-60
2023/08/07 03:49:01;;;;;;;5.03;1.70;;;14.00;99.90;;;;;;5072345;28;20213;-60
2023/08/07 03:51:29;;;;;;;4.77;1.53;;;14.00;99.90;;;;;;5072310;28;20208;-60
2023/08/07 03:53:55;;;;;;;2.70;1.60;;;14.00;99.90;;;;;;5072203;28;20299;-60
2023/08/07 03:56:23;;;;;;;3.77;1.60;;;14.00;99.90;;;;;;5071607;28;20224;-60
2023/08/07 03:58:50;;;;;;;2.33;1.30;;;13.90;99.90;;;;;;5071901;28;20225;-60
2023/08/07 04:01:17;;;;;;;6.67;1.60;;;13.90;99.90;;;;;;5071545;28;20208;-60
2023/08/07 04:03:43;;;;;;;3.83;1.30;;;14.00;99.90;;;;;;5072027;28;20208;-60
2023/08/07 04:06:15;;;;;;;3.50;1.83;;;14.00;99.90;;;;;;5071688;28;20225;-60
2023/08/07 04:08:42;;;;;;;5.10;1.73;;;14.00;99.90;;;;;;5072164;28;20228;-60
2023/08/07 04:11:09;;;;;;;5.10;1.70;;;14.00;99.90;;;;;;5071941;28;20205;-59
2023/08/07 04:13:37;;;;;;;3.60;1.50;;;14.00;99.90;;;;;;5071835;28;20212;-59
2023/08/07 04:16:04;;;;;;;3.73;1.87;;;14.00;99.90;;;;;;5071870;28;20231;-59
2023/08/07 04:18:31;;;;;;;5.97;1.63;;;13.90;99.90;;;;;;5071722;28;20228;-59
2023/08/07 04:20:58;;;;;;;4.70;1.73;;;13.90;99.90;;;;;;5071771;28;20247;-59
2023/08/07 04:23:25;;;;;;;4.20;1.70;;;14.00;99.90;;;;;;5071786;28;20209;-58
2023/08/07 04:25:53;;;;;;;5.43;1.80;;;14.00;99.90;;;;;;5071399;28;20204;-59
2023/08/07 04:28:20;;;;;;;3.20;1.73;;;14.10;99.90;;;;;;5071795;28;20208;-59
2023/08/07 04:30:51;;;;;;;3.60;1.50;;;14.10;99.90;;;;;;5071557;28;20201;-59
2023/08/07 04:33:17;;;;;;;4.27;1.60;;;14.10;99.90;;;;;;5071755;28;20216;-58
2023/08/07 04:35:46;;;;;;;5.00;1.40;;;14.00;99.90;;;;;;5071346;28;20220;-59
2023/08/07 04:38:13;;;;;;;5.90;3.13;;;14.10;99.90;;;;;;5071304;28;20726;-59
2023/08/07 04:40:44;;;;;;;4.00;1.60;;;14.00;99.90;;;;;;5071791;28;20212;-58
2023/08/07 04:43:11;;;;;;;3.70;1.37;;;14.10;99.90;;;;;;5071664;28;20266;-59
2023/08/07 04:45:39;;;;;;;4.80;1.83;;;14.10;99.90;;;;;;5071465;28;20212;-65
2023/08/07 04:48:07;;;;;;;3.93;1.40;;;14.00;99.90;;;;;;5071325;28;20271;-59
2023/08/07 04:50:34;;;;;;;4.77;1.40;;;14.10;99.90;;;;;;5071387;28;20218;-59
2023/08/07 04:53:01;;;;;;;4.37;1.67;;;14.20;99.90;;;;;;5071391;28;20213;-59
2023/08/07 04:55:27;;;;;;;3.83;1.60;;;14.30;99.90;;;;;;5071670;28;20209;-59
2023/08/07 04:57:56;;;;;;;3.47;1.40;;;14.20;99.90;;;;;;5071226;28;20308;-58
2023/08/07 05:00:23;;;;;;;2.40;1.30;;;14.20;99.90;;;;;;5071745;28;20236;-59
2023/08/07 05:02:49;;;;;;;6.90;1.60;;;14.10;99.90;;;;;;5071367;28;20200;-59
2023/08/07 05:05:18;;;;;;;6.47;1.50;;;14.10;99.90;;;;;;5071242;28;20216;-59
2023/08/07 05:07:45;;;;;;;2.50;1.40;;;14.20;99.90;;;;;;5071029;28;20225;-59
2023/08/07 05:10:12;;;;;;;3.03;1.63;;;14.20;99.90;;;;;;5071396;28;20205;-59
2023/08/07 05:12:38;;;;;;;3.50;1.57;;;14.30;99.90;;;;;;5073251;28;20212;-59
2023/08/07 05:15:06;;;;;;;4.77;1.63;;;14.30;99.90;;;;;;5075269;28;20209;-60
2023/08/07 05:17:33;;;;;;;4.20;1.30;;;14.40;99.90;;;;;;5074507;28;20228;-59
2023/08/07 05:20:00;;;;;;;4.20;1.93;;;14.40;99.90;;;;;;5074861;28;20212;-59
2023/08/07 05:22:28;;;;;;;1.90;1.10;;;14.40;99.90;;;;;;5074990;28;20209;-59
2023/08/07 05:24:54;;;;;;;5.67;1.73;;;14.40;99.90;;;;;;5074912;28;20310;-60
2023/08/07 05:27:21;;;;;;;3.33;1.40;;;14.40;99.90;;;;;;5074336;28;20650;-59
2023/08/07 05:29:48;;;;;;;3.63;1.63;;;14.40;99.90;;;;;;5074813;28;20252;-58
2023/08/07 05:32:15;;;;;;;5.07;1.40;;;14.50;99.90;;;;;;5074813;28;20208;-59
2023/08/07 05:34:42;;;;;;;6.90;1.50;;;14.50;99.90;;;;;;5074636;28;20205;-59
2023/08/07 05:37:09;;;;;;;2.90;1.70;;;14.50;99.90;;;;;;5074226;28;20252;-59
2023/08/07 05:39:37;;;;;;;2.67;1.40;;;14.60;99.90;;;;;;5074514;28;20627;-59
2023/08/07 05:42:05;;;;;;;2.23;1.20;;;14.60;99.90;;;;;;5074535;28;20219;-60
2023/08/07 05:44:32;;;;;;;5.63;1.43;;;14.70;99.90;;;;;;5074372;28;20213;-59
2023/08/07 05:46:59;;;;;;;3.67;1.53;;;14.80;99.90;;;;;;5074252;28;20231;-60
2023/08/07 05:49:25;;;;;;;2.67;1.60;;;14.80;99.90;;;;;;5075130;28;20296;-60
2023/08/07 05:51:52;;;;;;;3.33;1.40;;;14.90;99.90;;;;;;5074109;28;20738;-60
2023/08/07 05:54:19;;;;;;;4.50;2.23;;;14.80;99.90;;;;;;5074386;28;20595;-61
2023/08/07 05:56:47;;;;;;;2.80;1.60;;;14.90;99.90;;;;;;5074055;28;20221;-59
2023/08/07 05:59:13;;;;;;;6.40;1.63;;;14.80;99.90;;;;;;5074267;28;20224;-59
2023/08/07 06:01:41;;;;;;;2.13;1.10;;;14.90;99.90;;;;;;5073990;28;20239;-60
2023/08/07 06:04:08;;;;;;;4.57;1.70;;;14.90;99.90;;;;;;5074376;28;20223;-60
2023/08/07 06:06:35;;;;;;;2.33;1.40;;;15.10;99.90;;;;;;5073920;28;20221;-60
2023/08/07 06:09:03;;;;;;;3.63;1.50;;;15.10;99.90;;;;;;5074653;28;20205;-59
2023/08/07 06:11:30;;;;;;;3.60;1.40;;;15.20;99.90;;;;;;5073748;28;20669;-60
2023/08/07 06:13:58;;;;;;;5.50;1.60;;;15.40;99.90;;;;;;5073759;28;20694;-60
2023/08/07 06:16:25;;;;;;;2.13;1.57;;;15.50;99.90;;;;;;5073964;28;20232;-59
2023/08/07 06:18:51;;;;;;;2.38;1.15;;;15.50;99.90;;;;;;5074016;28;20231;-59
2023/08/07 06:21:19;;;;;;;2.08;1.27;;;15.60;99.90;;;;;;5074029;28;20236;-60
2023/08/07 06:23:46;;;;;;;2.53;1.50;;;15.90;99.90;;;;;;5073505;28;20209;-60
2023/08/07 06:26:13;;;;;;;3.13;1.35;;;16.20;99.90;;;;;;5073738;28;20229;-60
2023/08/07 06:28:40;;;;;;;3.95;1.45;;;16.40;99.90;;;;;;5073381;28;20209;-60
2023/08/07 06:31:09;;;;;;;3.88;1.35;;;16.50;99.90;;;;;;5073657;28;20231;-60
2023/08/07 06:33:37;;;;;;;3.10;1.60;;;16.60;99.90;;;;;;5073759;28;20209;-60
2023/08/07 06:38:32;;;;;;;3.40;1.60;;;17.50;99.90;;;;;;5063711;22;20292;-56
2023/08/07 06:40:58;;;;;;;2.67;1.15;;;18.20;99.90;;;;;;5053298;28;20212;-56
2023/08/07 06:43:25;;;;;;;3.80;1.50;;;18.70;99.90;;;;;;5053446;28;20213;-56
2023/08/07 06:45:52;;;;;;;2.53;1.35;;;19.90;99.90;;;;;;5053392;28;20206;-56
2023/08/07 06:48:20;;;;;;;1.83;1.30;;;20.90;99.90;;;;;;5053465;28;20689;-56
2023/08/07 06:50:47;;;;;;;4.43;1.42;;;21.40;99.90;;;;;;5053278;28;20205;-56
2023/08/07 06:53:14;;;;;;;5.68;1.75;;;21.50;99.90;;;;;;5053131;28;20217;-56
2023/08/07 06:55:42;;;;;;;4.03;1.50;;;21.90;99.90;;;;;;5052992;28;20692;-57
2023/08/07 06:58:08;;;;;;;2.88;1.25;;;22.30;99.90;;;;;;5053466;28;20229;-56
2023/08/07 07:00:35;;;;;;;2.40;1.20;;;22.40;99.90;;;;;;5053436;28;20241;-59
2023/08/07 07:03:02;;;;;;;5.18;1.58;;;22.60;99.90;;;;;;5053217;28;20288;-56
2023/08/07 07:05:31;;;;;;;3.05;1.27;;;22.80;99.90;;;;;;5053140;28;20209;-56
2023/08/07 07:07:58;;;;;;;2.63;1.20;;;22.80;99.90;;;;;;5052711;28;20253;-57
2023/08/07 07:10:25;;;;;;;3.17;1.45;;;22.50;99.90;;;;;;5052930;28;20206;-57
2023/08/07 07:12:52;;;;;;;2.70;1.23;;;22.20;99.90;;;;;;5052818;28;20205;-59
2023/08/07 07:15:19;;;;;;;10.48;7.30;;;22.80;99.90;;;;;;5053090;28;20213;-57
2023/08/07 07:17:46;;;;;;;3.72;1.20;;;23.00;99.90;;;;;;5052777;28;20229;-58
2023/08/07 07:20:13;;;;;;;2.67;1.27;;;23.90;99.90;;;;;;5052731;28;20232;-58
2023/08/07 07:22:41;;;;;;;1.75;0.95;;;25.20;99.90;;;;;;5052720;28;20205;-57
2023/08/07 07:25:08;;;;;;;5.45;1.23;;;26.10;96.40;;;;;;5052893;28;20209;-57
2023/08/07 07:27:35;;;;;;;3.92;1.17;;;25.80;95.20;;;;;;5052589;28;20229;-57
2023/08/07 07:30:02;;;;;;;2.40;1.10;;;24.80;96.50;;;;;;5052562;28;20209;-57
2023/08/07 07:32:28;;;;;;;3.80;1.25;;;23.90;97.30;;;;;;5052713;28;20205;-56
2023/08/07 07:34:55;;;;;;;2.35;1.10;;;22.80;97.90;;;;;;5052316;28;20209;-57
2023/08/07 07:37:22;;;;;;;3.20;1.00;;;22.00;99.30;;;;;;5051019;28;20238;-62
2023/08/07 07:39:50;;;;;;;3.03;1.05;;;21.00;99.90;;;;;;5052624;28;20234;-58
2023/08/07 07:42:17;;;;;;;3.65;1.67;;;20.10;99.90;;;;;;5052756;28;20677;-57
2023/08/07 07:44:43;;;;;;;2.53;1.35;;;19.50;99.90;;;;;;5052750;28;20296;-57
2023/08/07 07:47:10;;;;;;;4.68;1.40;;;19.00;99.90;;;;;;5052099;28;20260;-57
2023/08/07 07:49:37;;;;;;;2.70;1.10;;;18.50;99.90;;;;;;5052284;28;20220;-57
2023/08/07 07:52:04;;;;;;;2.97;1.10;;;18.20;99.90;;;;;;5051999;28;20206;-58
2023/08/07 07:54:31;;;;;;;2.60;1.23;;;18.00;99.90;;;;;;5052179;28;20277;-60
2023/08/07 07:56:58;;;;;;;4.63;1.48;;;18.00;99.90;;;;;;5052231;28;20283;-61
2023/08/07 07:59:25;;;;;;;3.10;1.25;;;17.90;99.90;;;;;;5052281;28;20225;-58
2023/08/07 08:01:52;;;;;;;2.55;1.30;;;17.90;99.90;;;;;;5052148;28;20205;-58
2023/08/07 08:04:19;;;;;;;3.83;1.63;;;17.90;99.90;;;;;;5052347;28;20209;-57
2023/08/07 08:06:48;;;;;;;4.03;1.88;;;17.80;99.90;;;;;;5051498;28;20225;-57
2023/08/07 08:09:15;;;;;;;2.30;1.20;;;17.80;99.90;;;;;;5052018;28;20206;-58
2023/08/07 08:11:42;;;;;;;2.72;1.42;;;17.80;99.90;;;;;;5052187;28;20224;-60
2023/08/07 08:14:10;;;;;;;4.00;1.38;;;17.80;99.90;;;;;;5051769;28;20229;-58
2023/08/07 08:16:36;;;;;;;3.05;1.48;;;17.80;99.90;;;;;;5051414;28;20232;-59
2023/08/07 08:19:03;;;;;;;3.72;1.42;;;17.90;99.90;;;;;;5051649;28;20217;-61
2023/08/07 08:21:30;;;;;;;3.35;1.65;;;17.80;99.90;;;;;;5052123;28;20214;-59
2023/08/07 08:23:57;;;;;;;3.13;1.60;;;17.60;99.90;;;;;;5052003;28;20665;-61
2023/08/07 08:26:24;;;;;;;4.45;1.50;;;17.60;99.90;;;;;;5052036;28;20582;-59
2023/08/07 08:28:50;;;;;;;2.85;1.55;;;17.60;99.90;;;;;;5052503;28;20210;-59
2023/08/07 08:31:21;;;;;;;2.05;1.17;;;17.80;99.90;;;;;;5052138;28;20209;-58
2023/08/07 08:33:47;;;;;;;3.08;1.65;;;17.80;99.90;;;;;;5051935;28;20217;-59
2023/08/07 08:36:14;;;;;;;2.80;1.10;;;17.70;99.90;;;;;;5051597;28;20205;-59
2023/08/07 08:38:42;;;;;;;4.07;1.42;;;17.50;99.90;;;;;;5051724;28;20572;-61
2023/08/07 08:41:10;;;;;;;2.30;1.27;;;17.40;99.90;;;;;;5051865;28;20615;-58
2023/08/07 08:43:38;;;;;;;2.22;1.33;;;17.40;99.90;;;;;;5051698;28;20586;-58
2023/08/07 08:46:06;;;;;;;3.25;1.40;;;17.40;99.90;;;;;;5039340;28;20214;-62
2023/08/07 08:48:36;;;;;;;2.55;1.50;;;17.60;99.90;;;;;;5034170;28;20210;-61
2023/08/07 08:51:04;;;;;;;3.00;1.23;;;17.80;99.90;;;;;;5034918;28;20237;-61
2023/08/07 08:53:31;;;;;;;4.03;1.27;;;17.70;99.90;;;;;;5034767;28;20217;-59
2023/08/07 08:55:58;;;;;;;3.42;1.27;;;17.70;99.90;;;;;;5033640;28;20674;-63
2023/08/07 08:58:25;;;;;;;3.13;1.38;;;17.80;99.90;;;;;;5034461;28;20268;-60
2023/08/07 09:00:52;;;;;;;7.75;1.52;;;18.00;99.90;;;;;;5034313;28;20280;-61
2023/08/07 09:03:19;;;;;;;2.17;1.08;;;18.10;99.90;;;;;;5034517;28;20217;-59
2023/08/07 09:05:50;;;;;;;3.70;1.27;;;18.10;99.90;;;;;;5033626;28;20677;-60
2023/08/07 09:08:18;;;;;;;3.08;1.15;;;18.00;99.90;;;;;;5034519;28;20314;-61
2023/08/07 09:10:44;;;;;;;1.13;0.93;;;18.00;99.90;;;;;;5034874;28;20448;-58
2023/08/07 09:13:15;;;;;;;1.95;1.20;;;18.10;99.90;;;;;;5034093;28;20210;-59
2023/08/07 09:15:47;;;;;;;2.53;1.20;;;18.20;99.90;;;;;;5033975;28;20210;-59
2023/08/07 09:18:14;;;;;;;3.67;1.13;;;18.40;99.90;;;;;;5024727;28;20230;-58
2023/08/07 09:20:42;;;;;;;4.50;2.13;;;18.60;99.90;;;;;;5033479;28;20272;-63
2023/08/07 09:23:10;;;;;;;1.58;1.00;;;18.80;99.90;;;;;;5033969;28;20206;-62
2023/08/07 09:25:36;;;;;;;1.73;0.98;;;18.90;99.90;;;;;;5033923;28;20214;-58
2023/08/07 09:28:05;;;;;;;3.42;0.90;;;18.70;99.90;;;;;;5034095;28;20230;-59
2023/08/07 09:30:32;;;;;;;2.08;1.63;;;18.80;99.90;;;;;;5033620;28;20732;-61
2023/08/07 09:33:00;;;;;;;1.88;0.73;;;18.80;99.90;;;;;;5033545;28;20206;-62
2023/08/07 09:35:27;;;;;;;3.50;1.33;;;19.00;99.90;;;;;;5033915;28;20210;-60
2023/08/07 09:37:54;;;;;;;2.95;1.73;;;19.30;99.90;;;;;;5033217;28;20234;-63
2023/08/07 09:40:23;;;;;;;2.58;1.08;;;19.70;99.90;;;;;;5033934;28;20223;-62
2023/08/07 09:42:52;;;;;;;1.58;1.10;;;20.00;99.90;;;;;;5033713;28;20210;-64
2023/08/07 09:45:23;;;;;;;2.55;1.00;;;20.20;99.90;;;;;;5033325;28;20238;-64
2023/08/07 09:48:00;;;;;;;2.30;1.08;;;20.50;99.90;;;;;;5033305;28;20229;-61
2023/08/07 09:50:27;;;;;;;3.22;1.20;;;20.80;99.90;;;;;;5033357;28;20213;-61
2023/08/07 09:52:55;;;;;;;3.13;1.20;;;21.30;99.90;;;;;;5033489;28;20202;-61
2023/08/07 09:55:23;;;;;;;1.98;1.10;;;21.70;99.90;;;;;;5033351;28;20214;-59
2023/08/07 09:57:51;;;;;;;3.58;1.13;;;21.60;99.90;;;;;;5032641;28;20272;-60
2023/08/07 10:00:19;;;;;;;2.13;1.23;;;21.50;99.90;;;;;;5032779;28;20234;-59
2023/08/07 10:02:48;;;;;;;3.58;1.10;;;21.70;99.90;;;;;;5033168;28;20666;-60
2023/08/07 10:05:15;;;;;;;1.98;1.05;;;21.70;99.90;;;;;;5032844;28;20240;-60
2023/08/07 10:07:42;;;;;;;3.78;1.10;;;22.00;99.90;;;;;;5032989;28;20226;-61
2023/08/07 10:10:10;;;;;;;3.35;1.35;;;22.30;99.90;;;;;;5032903;28;20214;-59
2023/08/07 10:12:39;;;;;;;3.35;1.13;;;22.20;99.90;;;;;;5033164;28;20206;-57
2023/08/07 10:15:07;;;;;;;2.65;1.20;;;21.70;99.90;;;;;;5032876;28;20206;-57
2023/08/07 10:17:33;;;;;;;1.55;1.13;;;21.60;99.90;;;;;;5032570;28;20237;-60
2023/08/07 10:20:00;;;;;;;1.85;0.77;;;21.40;99.90;;;;;;5032762;28;20233;-57
2023/08/07 10:22:30;;;;;;;2.20;1.17;;;21.60;99.90;;;;;;5032792;28;20217;-58
2023/08/07 10:24:59;;;;;;;1.52;1.00;;;21.80;99.80;;;;;;5033126;28;20202;-59
2023/08/07 10:27:28;;;;;;;1.77;1.13;;;22.00;99.00;;;;;;5032617;28;20254;-56
2023/08/07 10:29:59;;;;;;;4.07;1.02;;;22.20;99.10;;;;;;5032081;28;20232;-61
2023/08/07 10:32:28;;;;;;;2.00;1.20;;;22.40;98.80;;;;;;5031040;28;20556;-58
2023/08/07 10:34:55;;;;;;;1.67;1.27;;;22.50;96.90;;;;;;5032330;28;20213;-59
2023/08/07 10:37:34;;;;;;;1.67;1.20;;;22.60;97.00;;;;;;5032224;28;20260;-59
2023/08/07 10:40:05;;;;;;;2.90;1.10;;;22.70;95.30;;;;;;5031993;28;20705;-58
2023/08/07 10:42:50;;;;;;;1.15;0.90;;;22.60;96.40;;;;;;5032292;28;20217;-60
2023/08/07 10:45:21;;;;;;;1.35;0.95;;;22.40;97.40;;;;;;5013040;28;20618;-59
2023/08/07 10:47:58;;;;;;;3.38;1.45;;;21.80;98.10;;;;;;5012342;28;20227;-59
2023/08/07 10:50:29;;;;;;;2.00;1.35;;;21.40;98.70;;;;;;5012775;28;20234;-61
2023/08/07 10:52:56;;;;;;;2.45;1.33;;;21.40;98.70;;;;;;5030879;28;20234;-58
2023/08/07 10:55:24;;;;;;;1.92;1.00;;;21.50;99.10;;;;;;5031939;28;20210;-55
2023/08/07 10:57:51;;;;;;;1.65;0.90;;;21.40;98.70;;;;;;5031758;28;20222;-57
2023/08/07 11:00:26;;;;;;;2.53;1.33;;;21.30;99.60;;;;;;5032027;28;20239;-61
2023/08/07 11:02:54;;;;;;;2.08;1.13;;;21.30;99.40;;;;;;5031994;28;20244;-62
2023/08/07 11:05:20;;;;;;;2.97;1.05;;;21.40;99.60;;;;;;5031856;28;20209;-60
2023/08/07 11:07:48;;;;;;;2.60;1.30;;;21.50;98.80;;;;;;5031361;28;20277;-60
2023/08/07 11:10:16;;;;;;;1.15;1.00;;;21.40;99.50;;;;;;5031449;28;20206;-58
2023/08/07 11:12:44;;;;;;;3.53;1.10;;;21.40;99.90;;;;;;5031614;28;20238;-59
2023/08/07 11:15:14;;;;;;;2.63;1.80;;;21.30;99.50;;;;;;5031809;28;20741;-60
2023/08/07 11:17:42;;;;;;;2.17;1.70;;;21.00;99.20;;;;;;5031308;28;20741;-58
2023/08/07 11:20:10;;;;;;;3.28;1.50;;;20.50;99.80;;;;;;5031228;28;20230;-61
2023/08/07 11:22:40;;;;;;;5.30;1.65;;;20.00;99.90;;;;;;5031062;28;20205;-61
2023/08/07 11:25:11;;;;;;;2.00;1.13;;;19.60;99.90;;;;;;5031586;28;20202;-58
2023/08/07 11:27:38;;;;;;;2.33;1.33;;;19.10;99.90;;;;;;5031351;28;20271;-60
2023/08/07 11:30:05;;;;;;;3.13;1.35;;;18.80;99.90;;;;;;5031457;28;20205;-61
2023/08/07 11:32:32;;;;;;;1.73;1.10;;;18.70;99.90;;;;;;5031841;28;20210;-58
2023/08/07 11:35:03;;;;;;;4.55;1.50;;;18.60;99.90;;;;;;5030905;28;20233;-60
2023/08/07 11:37:29;;;;;;;1.67;1.30;;;18.50;99.90;;;;;;5031121;28;20230;-59
2023/08/07 11:40:01;;;;;;;2.70;1.50;;;18.60;99.90;;;;;;5031191;28;20230;-58
2023/08/07 11:42:29;;;;;;;2.05;1.15;;;18.70;99.90;;;;;;5031525;28;20312;-60
2023/08/07 11:44:55;;;;;;;2.08;1.10;;;18.70;99.90;;;;;;5031424;28;20206;-63
2023/08/07 11:47:22;;;;;;;5.20;1.45;;;18.80;99.90;;;;;;5030453;28;20280;-57
2023/08/07 11:49:49;;;;;;;2.13;1.30;;;19.00;99.90;;;;;;5031444;28;20202;-61
2023/08/07 11:52:17;;;;;;;2.45;1.60;;;19.30;99.90;;;;;;5031259;28;20202;-58
2023/08/07 11:54:48;;;;;;;2.58;1.65;;;19.40;99.90;;;;;;5030934;28;20260;-58
2023/08/07 11:57:18;;;;;;;3.10;1.35;;;19.60;99.90;;;;;;5031934;28;20258;-57
2023/08/07 11:59:50;;;;;;;2.50;1.33;;;19.70;99.90;;;;;;5031687;28;20217;-57
2023/08/07 12:02:17;;;;;;;4.88;1.45;;;19.90;99.90;;;;;;5032148;28;20229;-58
2023/08/07 12:04:44;;;;;;;2.72;1.25;;;20.00;99.90;;;;;;5031163;28;20576;-64
2023/08/07 12:07:13;;;;;;;2.85;1.20;;;20.10;99.90;;;;;;5031635;28;20249;-58
2023/08/07 12:09:42;;;;;;;2.20;1.10;;;20.40;99.90;;;;;;5031817;28;20217;-59
2023/08/07 12:12:11;;;;;;;3.35;1.60;;;20.40;99.90;;;;;;5031729;28;20669;-59
2023/08/07 12:14:39;;;;;;;1.70;1.15;;;20.30;99.90;;;;;;5031508;28;20214;-59
2023/08/07 12:17:06;;;;;;;3.08;1.40;;;20.10;99.90;;;;;;5031199;28;20226;-60
2023/08/07 12:19:40;;;;;;;2.58;1.50;;;19.90;99.90;;;;;;5031875;28;20214;-56
2023/08/07 12:22:08;;;;;;;3.10;1.10;;;19.70;99.90;;;;;;5031280;28;20206;-58
2023/08/07 12:24:36;;;;;;;2.45;1.33;;;19.70;99.90;;;;;;5031646;28;20245;-57
2023/08/07 12:27:05;;;;;;;2.28;1.30;;;19.80;99.90;;;;;;5031139;28;20237;-57
2023/08/07 12:29:32;;;;;;;2.80;1.42;;;20.00;99.90;;;;;;5031464;28;20682;-57
2023/08/07 12:32:01;;;;;;;1.42;1.13;;;20.30;99.90;;;;;;5031507;28;20210;-57
2023/08/07 12:34:27;;;;;;;2.58;1.20;;;20.60;99.90;;;;;;5031592;28;20224;-56
2023/08/07 12:36:54;;;;;;;3.22;1.50;;;20.80;99.90;;;;;;5031609;28;20315;-58
2023/08/07 12:39:21;;;;;;;1.75;1.50;;;20.70;99.90;;;;;;5031474;28;20293;-59
2023/08/07 12:41:49;;;;;;;4.13;1.30;;;20.80;99.90;;;;;;5032202;28;20710;-58
2023/08/07 12:44:17;;;;;;;2.03;1.42;;;20.70;99.90;;;;;;5031974;28;20207;-58
2023/08/07 12:46:44;;;;;;;1.73;1.40;;;20.70;99.90;;;;;;5031208;28;20606;-58
2023/08/07 12:49:11;;;;;;;1.67;1.42;;;20.80;99.90;;;;;;5031783;28;20212;-59
2023/08/07 12:51:37;;;;;;;1.85;1.50;;;21.10;99.90;;;;;;5031950;28;20211;-58